createdAt,value
2022-12-24T00:00:06.157Z,11.21
2022-12-24T00:02:34.561Z,11.20
2022-12-24T00:05:02.456Z,11.20
2022-12-24T00:07:30.257Z,11.20
2022-12-24T00:09:57.937Z,11.20
2022-12-24T00:12:25.680Z,11.19
2022-12-24T00:14:54.052Z,11.20
2022-12-24T00:17:21.795Z,11.20
2022-12-24T00:19:49.549Z,11.10
2022-12-24T00:22:17.309Z,10.96
2022-12-24T00:24:44.970Z,10.85
2022-12-24T00:27:13.238Z,10.78
2022-12-24T00:29:41.107Z,10.75
2022-12-24T00:32:10.425Z,10.76
2022-12-24T00:34:38.144Z,10.82
2022-12-24T00:37:06.423Z,10.88
2022-12-24T00:39:34.359Z,10.87
2022-12-24T00:42:02.138Z,10.81
2022-12-24T00:44:30.020Z,10.73
2022-12-24T00:46:57.704Z,10.64
2022-12-24T00:49:25.338Z,10.60
2022-12-24T00:51:53.671Z,10.60
2022-12-24T00:54:21.382Z,10.63
2022-12-24T00:56:49.018Z,10.68
2022-12-24T00:59:17.203Z,10.72
2022-12-24T01:01:44.924Z,10.76
2022-12-24T01:04:30.594Z,10.80
2022-12-24T01:06:58.445Z,10.85
2022-12-24T01:09:26.115Z,10.89
2022-12-24T01:11:53.857Z,10.91
2022-12-24T01:14:21.826Z,10.91
2022-12-24T01:16:49.840Z,10.92
2022-12-24T01:19:17.712Z,10.91
2022-12-24T01:21:45.335Z,10.91
2022-12-24T01:24:13.111Z,10.93
2022-12-24T01:26:40.760Z,10.93
2022-12-24T01:29:08.706Z,10.91
2022-12-24T01:31:36.648Z,10.91
2022-12-24T01:34:04.352Z,10.89
2022-12-24T01:36:31.940Z,10.89
2022-12-24T01:38:59.538Z,10.89
2022-12-24T01:41:45.432Z,10.89
2022-12-24T01:44:13.247Z,10.90
2022-12-24T01:46:40.868Z,10.91
2022-12-24T01:49:08.617Z,10.92
2022-12-24T01:51:36.909Z,10.93
2022-12-24T01:54:04.577Z,10.92
2022-12-24T01:56:32.420Z,10.92
2022-12-24T01:59:00.032Z,10.91
2022-12-24T02:01:27.688Z,10.90
2022-12-24T02:03:55.921Z,10.89
2022-12-24T02:06:24.081Z,10.86
2022-12-24T02:08:52.112Z,10.84
2022-12-24T02:11:19.747Z,10.83
2022-12-24T02:13:47.344Z,10.83
2022-12-24T02:16:15.020Z,10.79
2022-12-24T02:18:43.072Z,10.77
2022-12-24T02:21:10.918Z,10.74
2022-12-24T02:23:38.544Z,10.75
2022-12-24T02:26:06.661Z,10.75
2022-12-24T02:28:34.281Z,10.76
2022-12-24T02:31:02.583Z,10.76
2022-12-24T02:33:30.544Z,10.76
2022-12-24T02:35:58.164Z,10.74
2022-12-24T02:38:25.932Z,10.73
2022-12-24T02:40:53.565Z,10.73
2022-12-24T02:43:21.558Z,10.73
2022-12-24T02:45:53.707Z,10.71
2022-12-24T02:48:24.591Z,10.67
2022-12-24T02:50:52.195Z,10.62
2022-12-24T02:53:19.789Z,10.60
2022-12-24T02:55:47.813Z,10.58
2022-12-24T02:58:15.613Z,10.55
2022-12-24T03:00:43.295Z,10.53
2022-12-24T03:03:10.965Z,10.52
2022-12-24T03:05:38.840Z,10.50
2022-12-24T03:08:07.254Z,10.50
2022-12-24T03:10:35.111Z,10.49
2022-12-24T03:13:02.772Z,10.49
2022-12-24T03:15:30.397Z,10.45
2022-12-24T03:17:58.131Z,10.39
2022-12-24T03:20:25.743Z,10.35
2022-12-24T03:22:53.355Z,10.33
2022-12-24T03:25:21.005Z,10.30
2022-12-24T03:27:48.609Z,10.25
2022-12-24T03:30:18.286Z,10.26
2022-12-24T03:32:46.303Z,10.25
2022-12-24T03:35:14.481Z,10.24
2022-12-24T03:37:42.066Z,10.24
2022-12-24T03:40:09.738Z,10.27
2022-12-24T03:42:37.311Z,10.28
2022-12-24T03:45:05.320Z,10.31
2022-12-24T03:47:33.143Z,10.34
2022-12-24T03:50:00.749Z,10.38
2022-12-24T03:52:28.453Z,10.46
2022-12-24T03:54:56.162Z,10.52
2022-12-24T03:57:24.150Z,10.56
2022-12-24T03:59:51.897Z,10.58
2022-12-24T04:02:19.634Z,10.61
2022-12-24T04:04:47.282Z,10.64
2022-12-24T04:07:14.877Z,10.66
2022-12-24T04:09:42.895Z,10.69
2022-12-24T04:12:12.252Z,10.71
2022-12-24T04:14:39.854Z,10.72
2022-12-24T04:17:07.487Z,10.73
2022-12-24T04:19:35.096Z,10.73
2022-12-24T04:22:03.074Z,10.73
2022-12-24T04:24:30.870Z,10.74
2022-12-24T04:26:58.471Z,10.72
2022-12-24T04:29:26.110Z,10.72
2022-12-24T04:31:53.796Z,10.70
2022-12-24T04:34:22.316Z,10.68
2022-12-24T04:36:49.950Z,10.69
2022-12-24T04:39:17.563Z,10.69
2022-12-24T04:41:45.200Z,10.70
2022-12-24T04:44:12.808Z,10.72
2022-12-24T04:46:41.618Z,10.72
2022-12-24T04:49:09.223Z,10.71
2022-12-24T04:51:36.786Z,10.72
2022-12-24T04:54:04.443Z,10.70
2022-12-24T04:56:32.581Z,10.71
2022-12-24T04:59:00.225Z,10.71
2022-12-24T05:01:28.235Z,10.70
2022-12-24T05:03:55.911Z,10.70
2022-12-24T05:06:23.494Z,10.70
2022-12-24T05:08:51.134Z,10.70
2022-12-24T05:11:19.132Z,10.71
2022-12-24T05:13:48.109Z,10.72
2022-12-24T05:16:16.057Z,10.72
2022-12-24T05:18:43.721Z,10.72
2022-12-24T05:21:11.365Z,10.72
2022-12-24T05:23:57.012Z,10.71
2022-12-24T05:26:24.870Z,10.71
2022-12-24T05:28:52.458Z,10.71
2022-12-24T05:31:20.101Z,10.70
2022-12-24T05:33:47.729Z,10.70
2022-12-24T05:36:15.781Z,10.69
2022-12-24T05:38:43.620Z,10.68
2022-12-24T05:41:11.236Z,10.68
2022-12-24T05:43:38.841Z,10.71
2022-12-24T05:46:06.543Z,10.75
2022-12-24T05:48:34.529Z,10.75
2022-12-24T05:51:02.420Z,10.77
2022-12-24T05:53:30.094Z,10.79
2022-12-24T05:55:57.691Z,10.81
2022-12-24T05:58:25.319Z,10.82
2022-12-24T06:00:53.712Z,10.84
2022-12-24T06:03:21.754Z,10.85
2022-12-24T06:05:49.353Z,10.88
2022-12-24T06:08:17.004Z,10.88
2022-12-24T06:10:44.608Z,10.88
2022-12-24T06:13:12.599Z,10.87
2022-12-24T06:15:40.266Z,10.88
2022-12-24T06:18:07.867Z,10.88
2022-12-24T06:20:35.546Z,10.88
2022-12-24T06:23:03.603Z,10.89
2022-12-24T06:25:31.586Z,10.89
2022-12-24T06:27:59.350Z,10.89
2022-12-24T06:30:27.016Z,10.89
2022-12-24T06:32:54.630Z,10.88
2022-12-24T06:35:22.305Z,10.88
2022-12-24T06:37:50.184Z,10.87
2022-12-24T06:40:17.830Z,10.86
2022-12-24T06:42:45.408Z,10.86
2022-12-24T06:45:13.433Z,10.85
2022-12-24T06:47:41.008Z,10.85
2022-12-24T06:50:08.982Z,10.86
2022-12-24T06:52:36.861Z,10.86
2022-12-24T06:55:04.459Z,10.86
2022-12-24T06:57:32.510Z,10.87
2022-12-24T07:00:00.205Z,10.87
2022-12-24T07:02:29.651Z,10.87
2022-12-24T07:04:57.520Z,10.87
2022-12-24T07:07:25.589Z,10.87
2022-12-24T07:09:53.209Z,10.86
2022-12-24T07:12:20.855Z,10.87
2022-12-24T07:14:48.826Z,10.88
2022-12-24T07:17:17.024Z,10.88
2022-12-24T07:19:44.810Z,10.88
2022-12-24T07:22:15.771Z,10.88
2022-12-24T07:24:43.639Z,10.89
2022-12-24T07:27:11.614Z,10.90
2022-12-24T07:29:40.816Z,10.90
2022-12-24T07:32:08.504Z,10.89
2022-12-24T07:34:36.124Z,10.90
2022-12-24T07:37:03.801Z,10.90
2022-12-24T07:39:31.633Z,10.89
2022-12-24T07:41:59.290Z,10.90
2022-12-24T07:44:26.987Z,10.89
2022-12-24T07:46:54.669Z,10.89
2022-12-24T07:49:22.350Z,10.89
2022-12-24T07:51:50.421Z,10.88
2022-12-24T07:54:18.191Z,10.90
2022-12-24T07:56:45.838Z,10.89
2022-12-24T07:59:13.499Z,10.88
2022-12-24T08:01:41.306Z,10.90
2022-12-24T08:04:09.573Z,10.90
2022-12-24T08:06:37.564Z,10.90
2022-12-24T08:09:05.158Z,10.90
2022-12-24T08:11:32.799Z,10.91
2022-12-24T08:14:00.474Z,10.90
2022-12-24T08:16:28.603Z,10.92
2022-12-24T08:18:56.613Z,10.93
2022-12-24T08:21:24.315Z,10.94
2022-12-24T08:23:51.908Z,10.94
2022-12-24T08:26:19.536Z,10.96
2022-12-24T08:28:47.575Z,10.97
2022-12-24T08:31:16.357Z,10.97
2022-12-24T08:33:44.432Z,10.97
2022-12-24T08:36:12.169Z,10.98
2022-12-24T08:38:39.869Z,11.01
2022-12-24T08:41:07.876Z,11.03
2022-12-24T08:43:35.829Z,11.05
2022-12-24T08:46:03.502Z,11.04
2022-12-24T08:48:31.275Z,11.05
2022-12-24T08:50:58.935Z,11.04
2022-12-24T08:53:26.595Z,11.04
2022-12-24T08:55:57.261Z,11.03
2022-12-24T08:58:24.946Z,11.04
2022-12-24T09:00:52.630Z,11.04
2022-12-24T09:03:27.104Z,11.04
2022-12-24T09:05:56.310Z,11.06
2022-12-24T09:08:24.005Z,11.07
2022-12-24T09:10:51.676Z,11.09
2022-12-24T09:13:19.377Z,11.10
2022-12-24T09:15:47.043Z,11.13
2022-12-24T09:18:14.998Z,11.15
2022-12-24T09:20:46.729Z,11.17
2022-12-24T09:23:14.677Z,11.18
2022-12-24T09:25:42.493Z,11.18
2022-12-24T09:28:10.351Z,11.19
2022-12-24T09:30:38.641Z,11.21
2022-12-24T09:33:06.359Z,11.26
2022-12-24T09:35:34.604Z,11.28
2022-12-24T09:38:04.096Z,11.33
2022-12-24T09:40:31.805Z,11.36
2022-12-24T09:43:00.122Z,11.40
2022-12-24T09:45:27.916Z,11.44
2022-12-24T09:47:55.717Z,11.54
2022-12-24T09:50:23.451Z,11.65
2022-12-24T09:52:51.116Z,11.68
2022-12-24T09:55:19.379Z,11.70
2022-12-24T09:57:47.233Z,11.75
2022-12-24T10:00:15.392Z,11.80
2022-12-24T10:02:43.387Z,11.83
2022-12-24T10:05:12.278Z,11.87
2022-12-24T10:07:40.489Z,11.88
2022-12-24T10:10:08.557Z,11.90
2022-12-24T10:12:36.397Z,11.88
2022-12-24T10:15:04.435Z,11.87
2022-12-24T10:17:32.126Z,11.84
2022-12-24T10:20:00.672Z,11.86
2022-12-24T10:22:28.904Z,11.89
2022-12-24T10:24:56.701Z,11.85
2022-12-24T10:27:24.488Z,11.86
2022-12-24T10:29:52.158Z,11.93
2022-12-24T10:32:20.438Z,11.99
2022-12-24T10:34:48.381Z,12.02
2022-12-24T10:37:16.123Z,12.05
2022-12-24T10:39:43.832Z,12.06
2022-12-24T10:42:11.744Z,12.08
2022-12-24T10:44:40.875Z,12.12
2022-12-24T10:47:08.590Z,12.25
2022-12-24T10:49:36.463Z,12.39
2022-12-24T10:52:04.164Z,12.44
2022-12-24T10:54:39.383Z,12.44
2022-12-24T10:57:07.747Z,12.39
2022-12-24T10:59:35.460Z,12.39
2022-12-24T11:02:03.408Z,12.32
2022-12-24T11:04:31.292Z,12.23
2022-12-24T11:06:59.447Z,12.33
2022-12-24T11:09:27.695Z,12.66
2022-12-24T11:11:55.494Z,13.05
2022-12-24T11:14:23.392Z,13.21
2022-12-24T11:16:51.302Z,13.07
2022-12-24T11:19:19.011Z,13.25
2022-12-24T11:21:47.647Z,13.48
2022-12-24T11:24:15.592Z,13.61
2022-12-24T11:26:43.490Z,13.73
2022-12-24T11:29:11.784Z,13.78
2022-12-24T11:31:39.944Z,13.68
2022-12-24T11:34:08.152Z,13.59
2022-12-24T11:36:35.990Z,13.72
2022-12-24T11:39:03.942Z,13.65
2022-12-24T11:41:31.988Z,13.41
2022-12-24T11:43:59.759Z,13.14
2022-12-24T11:46:28.141Z,12.94
2022-12-24T11:48:56.051Z,12.73
2022-12-24T11:51:24.010Z,12.59
2022-12-24T11:53:52.285Z,12.51
2022-12-24T11:56:19.984Z,12.41
2022-12-24T11:58:48.351Z,12.35
2022-12-24T12:01:16.364Z,12.27
2022-12-24T12:03:44.219Z,12.23
2022-12-24T12:06:12.110Z,12.17
2022-12-24T12:08:40.126Z,12.15
2022-12-24T12:11:08.555Z,12.15
2022-12-24T12:13:38.268Z,12.09
2022-12-24T12:16:06.139Z,12.08
2022-12-24T12:18:33.937Z,12.06
2022-12-24T12:21:02.209Z,12.11
2022-12-24T12:23:30.787Z,12.14
2022-12-24T12:25:58.747Z,12.17
2022-12-24T12:28:26.496Z,12.17
2022-12-24T12:30:54.493Z,12.15
2022-12-24T12:33:22.428Z,12.14
2022-12-24T12:35:52.545Z,12.14
2022-12-24T12:38:20.564Z,12.20
2022-12-24T12:40:48.378Z,12.27
2022-12-24T12:43:16.308Z,12.25
2022-12-24T12:45:44.214Z,12.21
2022-12-24T12:48:12.453Z,12.15
2022-12-24T12:50:40.418Z,12.07
2022-12-24T12:53:08.192Z,11.98
2022-12-24T12:55:36.011Z,11.93
2022-12-24T12:58:04.336Z,11.87
2022-12-24T13:00:32.735Z,11.86
2022-12-24T13:03:00.664Z,11.93
2022-12-24T13:05:28.659Z,12.01
2022-12-24T13:07:56.548Z,12.05
2022-12-24T13:10:24.293Z,12.06
2022-12-24T13:12:52.629Z,12.11
2022-12-24T13:15:20.441Z,12.07
2022-12-24T13:17:48.385Z,12.04
2022-12-24T13:20:16.138Z,12.03
2022-12-24T13:22:44.242Z,12.02
2022-12-24T13:25:12.849Z,12.05
2022-12-24T13:27:40.597Z,12.12
2022-12-24T13:30:10.225Z,12.19
2022-12-24T13:32:38.275Z,12.19
2022-12-24T13:35:05.999Z,12.16
2022-12-24T13:37:34.258Z,12.15
2022-12-24T13:40:02.125Z,12.17
2022-12-24T13:42:30.500Z,12.21
2022-12-24T13:44:58.383Z,12.35
2022-12-24T13:47:32.225Z,12.42
2022-12-24T13:50:01.036Z,12.45
2022-12-24T13:52:28.883Z,12.45
2022-12-24T13:54:56.609Z,12.36
2022-12-24T13:57:24.455Z,12.22
2022-12-24T13:59:52.336Z,12.13
2022-12-24T14:02:20.814Z,12.05
2022-12-24T14:04:49.177Z,12.03
2022-12-24T14:07:16.940Z,12.02
2022-12-24T14:09:44.889Z,12.02
2022-12-24T14:12:16.399Z,12.01
2022-12-24T14:14:45.597Z,11.98
2022-12-24T14:17:13.624Z,11.93
2022-12-24T14:19:41.503Z,11.88
2022-12-24T14:22:09.342Z,11.83
2022-12-24T14:24:37.225Z,11.87
2022-12-24T14:27:07.000Z,11.93
2022-12-24T14:29:34.840Z,11.92
2022-12-24T14:32:04.542Z,11.88
2022-12-24T14:34:32.566Z,11.80
2022-12-24T14:37:00.426Z,11.69
2022-12-24T14:39:28.873Z,11.61
2022-12-24T14:41:56.648Z,11.52
2022-12-24T14:44:24.397Z,11.42
2022-12-24T14:46:52.897Z,11.34
2022-12-24T14:49:20.661Z,11.25
2022-12-24T14:51:48.813Z,11.21
2022-12-24T14:54:16.742Z,11.17
2022-12-24T14:56:44.540Z,11.14
2022-12-24T14:59:12.337Z,11.11
2022-12-24T15:01:40.432Z,11.11
2022-12-24T15:04:08.882Z,11.13
2022-12-24T15:06:36.697Z,11.08
2022-12-24T15:09:04.597Z,11.01
2022-12-24T15:11:32.743Z,10.94
2022-12-24T15:14:00.833Z,10.90
2022-12-24T15:16:29.473Z,10.83
2022-12-24T15:18:57.265Z,10.75
2022-12-24T15:21:24.988Z,10.70
2022-12-24T15:23:52.968Z,10.66
2022-12-24T15:26:20.832Z,10.58
2022-12-24T15:28:49.342Z,10.50
2022-12-24T15:31:17.188Z,10.41
2022-12-24T15:33:45.682Z,10.37
2022-12-24T15:36:13.427Z,10.33
2022-12-24T15:38:41.208Z,10.33
2022-12-24T15:41:09.585Z,10.32
2022-12-24T15:43:37.276Z,10.34
2022-12-24T15:46:05.231Z,10.38
2022-12-24T15:48:33.171Z,10.41
2022-12-24T15:51:01.149Z,10.44
2022-12-24T15:53:29.184Z,10.46
2022-12-24T15:55:57.505Z,10.45
2022-12-24T15:58:25.575Z,10.42
2022-12-24T16:00:53.490Z,10.35
2022-12-24T16:03:23.664Z,10.31
2022-12-24T16:05:52.334Z,10.30
2022-12-24T16:08:20.420Z,10.29
2022-12-24T16:10:48.170Z,10.30
2022-12-24T16:13:16.087Z,10.30
2022-12-24T16:15:44.213Z,10.29
2022-12-24T16:18:12.743Z,10.28
2022-12-24T16:20:40.587Z,10.25
2022-12-24T16:23:08.376Z,10.22
2022-12-24T16:25:36.209Z,10.14
2022-12-24T16:28:09.895Z,10.06
2022-12-24T16:30:40.268Z,10.01
2022-12-24T16:33:08.076Z,9.97
2022-12-24T16:35:39.451Z,9.91
2022-12-24T16:38:07.856Z,9.87
2022-12-24T16:40:35.734Z,9.82
2022-12-24T16:43:21.489Z,9.77
2022-12-24T16:45:49.507Z,9.71
2022-12-24T16:48:17.929Z,9.65
2022-12-24T16:50:45.775Z,9.60
2022-12-24T16:53:17.545Z,9.56
2022-12-24T16:55:46.131Z,9.50
2022-12-24T16:58:16.083Z,9.46
2022-12-24T17:00:44.965Z,9.41
2022-12-24T17:03:12.914Z,9.36
2022-12-24T17:05:40.903Z,9.26
2022-12-24T17:08:09.178Z,9.18
2022-12-24T17:10:37.167Z,9.13
2022-12-24T17:13:05.092Z,9.08
2022-12-24T17:15:32.943Z,9.04
2022-12-24T17:18:00.990Z,8.98
2022-12-24T17:20:29.417Z,8.90
2022-12-24T17:22:57.507Z,8.81
2022-12-24T17:25:25.359Z,8.72
2022-12-24T17:27:53.234Z,8.65
2022-12-24T17:30:21.142Z,8.59
2022-12-24T17:32:49.518Z,8.53
2022-12-24T17:35:17.899Z,8.48
2022-12-24T17:37:45.762Z,8.43
2022-12-24T17:40:13.606Z,8.37
2022-12-24T17:42:41.904Z,8.30
2022-12-24T17:45:10.192Z,8.23
2022-12-24T17:47:38.380Z,8.15
2022-12-24T17:50:06.894Z,8.12
2022-12-24T17:52:35.026Z,8.11
2022-12-24T17:55:02.905Z,8.10
2022-12-24T17:57:30.952Z,8.10
2022-12-24T17:59:58.992Z,8.11
2022-12-24T18:02:26.919Z,8.10
2022-12-24T18:04:55.364Z,8.10
2022-12-24T18:07:23.302Z,8.07
2022-12-24T18:09:51.679Z,8.04
2022-12-24T18:12:20.106Z,8.01
2022-12-24T18:14:47.979Z,7.99
2022-12-24T18:17:15.722Z,7.99
2022-12-24T18:19:43.627Z,7.98
2022-12-24T18:22:11.898Z,7.97
2022-12-24T18:24:39.710Z,7.95
2022-12-24T18:27:07.891Z,7.95
2022-12-24T18:29:39.925Z,7.97
2022-12-24T18:32:07.693Z,7.96
2022-12-24T18:34:35.797Z,7.95
2022-12-24T18:37:03.725Z,7.92
2022-12-24T18:39:31.537Z,7.90
2022-12-24T18:41:59.479Z,7.90
2022-12-24T18:44:27.246Z,7.90
2022-12-24T18:46:55.381Z,7.93
2022-12-24T18:49:23.856Z,7.96
2022-12-24T18:51:51.688Z,8.03
2022-12-24T18:54:19.572Z,8.09
2022-12-24T18:56:47.484Z,8.15
2022-12-24T18:59:15.585Z,8.21
2022-12-24T19:01:43.866Z,8.26
2022-12-24T19:04:13.613Z,8.26
2022-12-24T19:06:43.585Z,8.26
2022-12-24T19:09:13.582Z,8.25
2022-12-24T19:11:42.028Z,8.24
2022-12-24T19:14:09.977Z,8.21
2022-12-24T19:16:38.013Z,8.19
2022-12-24T19:19:05.988Z,8.19
2022-12-24T19:21:33.840Z,8.19
2022-12-24T19:24:02.343Z,8.20
2022-12-24T19:26:30.202Z,8.21
2022-12-24T19:28:58.126Z,8.21
2022-12-24T19:31:26.141Z,8.20
2022-12-24T19:33:54.460Z,8.20
2022-12-24T19:36:22.923Z,8.19
2022-12-24T19:38:51.373Z,8.19
2022-12-24T19:41:19.256Z,8.19
2022-12-24T19:43:46.953Z,8.19
2022-12-24T19:46:15.447Z,8.18
2022-12-24T19:48:43.696Z,8.16
2022-12-24T19:51:11.824Z,8.17
2022-12-24T19:53:39.619Z,8.16
2022-12-24T19:56:08.948Z,8.17
2022-12-24T19:58:36.901Z,8.19
2022-12-24T20:01:09.549Z,8.23
2022-12-24T20:03:40.863Z,8.26
2022-12-24T20:06:08.761Z,8.31
2022-12-24T20:08:36.622Z,8.38
2022-12-24T20:11:04.520Z,8.40
2022-12-24T20:13:32.590Z,8.42
2022-12-24T20:16:00.630Z,8.44
2022-12-24T20:18:28.629Z,8.45
2022-12-24T20:20:56.683Z,8.49
2022-12-24T20:23:24.455Z,8.52
2022-12-24T20:25:52.616Z,8.58
2022-12-24T20:28:20.722Z,8.62
2022-12-24T20:30:48.541Z,8.68
2022-12-24T20:33:16.450Z,8.70
2022-12-24T20:35:44.611Z,8.72
2022-12-24T20:38:12.899Z,8.70
2022-12-24T20:40:41.117Z,8.69
2022-12-24T20:43:08.905Z,8.68
2022-12-24T20:45:36.763Z,8.66
2022-12-24T20:48:04.682Z,8.65
2022-12-24T20:50:32.864Z,8.63
2022-12-24T20:53:01.067Z,8.62
2022-12-24T20:55:29.013Z,8.63
2022-12-24T20:57:56.901Z,8.63
2022-12-24T21:00:25.401Z,8.65
2022-12-24T21:02:54.249Z,8.69
2022-12-24T21:05:22.164Z,8.72
2022-12-24T21:07:49.985Z,8.76
2022-12-24T21:10:17.872Z,8.81
2022-12-24T21:12:52.163Z,8.88
2022-12-24T21:15:20.714Z,8.93
2022-12-24T21:17:48.898Z,8.96
2022-12-24T21:20:16.677Z,8.98
2022-12-24T21:22:45.036Z,8.98
2022-12-24T21:25:12.948Z,8.95
2022-12-24T21:27:41.338Z,8.93
2022-12-24T21:30:09.489Z,8.92
2022-12-24T21:32:37.314Z,8.89
2022-12-24T21:35:05.233Z,8.87
2022-12-24T21:37:33.123Z,8.84
2022-12-24T21:40:01.459Z,8.80
2022-12-24T21:42:29.322Z,8.75
2022-12-24T21:44:57.793Z,8.73
2022-12-24T21:47:25.583Z,8.73
2022-12-24T21:50:11.078Z,8.74
2022-12-24T21:52:39.227Z,8.75
2022-12-24T21:55:05.956Z,8.76
2022-12-24T21:57:51.256Z,8.78
2022-12-24T22:00:27.558Z,8.79
2022-12-24T22:02:55.842Z,8.82
2022-12-24T22:05:24.840Z,8.83
2022-12-24T22:08:09.886Z,8.82
2022-12-24T22:10:55.272Z,8.82
2022-12-24T22:13:23.708Z,8.82
2022-12-24T22:15:51.471Z,8.83
2022-12-24T22:18:19.312Z,8.86
2022-12-24T22:20:47.188Z,8.88
2022-12-24T22:23:15.287Z,8.92
2022-12-24T22:25:44.957Z,8.95
2022-12-24T22:28:12.797Z,8.97
2022-12-24T22:30:40.726Z,8.99
2022-12-24T22:33:08.663Z,9.00
2022-12-24T22:35:37.001Z,9.00
2022-12-24T22:38:05.026Z,8.97
2022-12-24T22:40:32.819Z,8.95
2022-12-24T22:43:00.688Z,8.94
2022-12-24T22:45:28.499Z,8.94
2022-12-24T22:47:56.852Z,8.94
2022-12-24T22:50:24.910Z,8.94
2022-12-24T22:52:54.139Z,8.94
2022-12-24T22:55:21.978Z,8.95
2022-12-24T22:57:49.868Z,8.94
2022-12-24T23:00:18.691Z,8.95
2022-12-24T23:02:46.740Z,8.95
2022-12-24T23:05:14.879Z,8.93
2022-12-24T23:07:43.120Z,8.90
2022-12-24T23:10:10.955Z,8.87
2022-12-24T23:12:56.052Z,8.84
2022-12-24T23:15:23.756Z,8.81
2022-12-24T23:17:51.544Z,8.75
2022-12-24T23:20:19.621Z,8.70
2022-12-24T23:22:47.693Z,8.64
2022-12-24T23:25:15.725Z,8.59
2022-12-24T23:27:45.058Z,8.56
2022-12-24T23:30:12.813Z,8.55
2022-12-24T23:32:40.534Z,8.51
2022-12-24T23:35:08.415Z,8.49
2022-12-24T23:37:36.556Z,8.50
2022-12-24T23:40:04.621Z,8.49
2022-12-24T23:42:32.526Z,8.48
2022-12-24T23:45:00.340Z,8.46
2022-12-24T23:47:28.044Z,8.44
2022-12-24T23:49:56.509Z,8.41
2022-12-24T23:52:24.440Z,8.37
2022-12-24T23:54:52.205Z,8.34
2022-12-24T23:57:20.016Z,8.29
2022-12-24T23:59:47.977Z,8.25
